sensor_id;sensor_type;location;lat;lon;timestamp;pressure;altitude;pressure_sealevel;temperature;humidity
42727;BME280;28372;56.832;60.658;2023-05-08T00:02:01;98054.69;;;6.20;36.87
42727;BME280;28372;56.832;60.658;2023-05-08T00:04:31;98052.91;;;6.24;36.34
42727;BME280;28372;56.832;60.658;2023-05-08T00:06:59;98073.94;;;6.22;36.13
42727;BME280;28372;56.832;60.658;2023-05-08T00:09:27;98078.28;;;6.27;36.27
42727;BME280;28372;56.832;60.658;2023-05-08T00:11:55;98087.56;;;6.17;36.37
42727;BME280;28372;56.832;60.658;2023-05-08T00:14:22;98072.69;;;6.20;36.39
42727;BME280;28372;56.832;60.658;2023-05-08T00:16:50;98068.44;;;6.18;36.03
42727;BME280;28372;56.832;60.658;2023-05-08T00:19:18;98064.41;;;6.12;36.68
42727;BME280;28372;56.832;60.658;2023-05-08T00:21:46;98073.81;;;6.18;36.96
42727;BME280;28372;56.832;60.658;2023-05-08T00:24:13;98078.28;;;6.27;36.19
42727;BME280;28372;56.832;60.658;2023-05-08T00:26:41;98069.25;;;6.19;36.25
42727;BME280;28372;56.832;60.658;2023-05-08T00:29:10;98087.81;;;6.12;37.21
42727;BME280;28372;56.832;60.658;2023-05-08T00:31:38;98098.31;;;6.17;36.73
42727;BME280;28372;56.832;60.658;2023-05-08T00:34:06;98100.47;;;6.24;36.41
42727;BME280;28372;56.832;60.658;2023-05-08T00:36:33;98106.41;;;6.29;36.47
42727;BME280;28372;56.832;60.658;2023-05-08T00:39:01;98094.06;;;6.28;36.47
42727;BME280;28372;56.832;60.658;2023-05-08T00:41:28;98087.59;;;6.29;36.68
42727;BME280;28372;56.832;60.658;2023-05-08T00:43:56;98085.47;;;6.35;36.71
42727;BME280;28372;56.832;60.658;2023-05-08T00:46:24;98081.53;;;6.45;36.31
42727;BME280;28372;56.832;60.658;2023-05-08T00:48:52;98083.44;;;6.32;36.73
42727;BME280;28372;56.832;60.658;2023-05-08T00:51:20;98078.22;;;6.36;36.31
42727;BME280;28372;56.832;60.658;2023-05-08T00:53:49;98096.91;;;6.44;36.32
42727;BME280;28372;56.832;60.658;2023-05-08T00:56:17;98095.31;;;6.43;37.00
42727;BME280;28372;56.832;60.658;2023-05-08T00:58:47;98098.56;;;6.49;36.53
42727;BME280;28372;56.832;60.658;2023-05-08T01:01:14;98110.53;;;6.51;37.09
42727;BME280;28372;56.832;60.658;2023-05-08T01:03:42;98110.44;;;6.48;36.93
42727;BME280;28372;56.832;60.658;2023-05-08T01:06:11;98108.97;;;6.38;36.68
42727;BME280;28372;56.832;60.658;2023-05-08T01:08:39;98106.84;;;6.31;37.09
42727;BME280;28372;56.832;60.658;2023-05-08T01:31:30;98138.19;;;7.01;37.17
42727;BME280;28372;56.832;60.658;2023-05-08T01:34:04;98148.69;;;7.07;36.98
42727;BME280;28372;56.832;60.658;2023-05-08T01:36:49;98138.69;;;7.19;37.03
42727;BME280;28372;56.832;60.658;2023-05-08T01:39:20;98138.38;;;7.21;36.73
42727;BME280;28372;56.832;60.658;2023-05-08T01:41:59;98149.19;;;7.37;36.64
42727;BME280;28372;56.832;60.658;2023-05-08T01:44:36;98146.69;;;7.44;36.34
42727;BME280;28372;56.832;60.658;2023-05-08T01:47:06;98151.84;;;7.49;35.18
42727;BME280;28372;56.832;60.658;2023-05-08T01:49:40;98129.47;;;7.61;35.54
42727;BME280;28372;56.832;60.658;2023-05-08T01:52:33;98136.31;;;7.87;34.98
42727;BME280;28372;56.832;60.658;2023-05-08T01:55:10;98144.66;;;7.98;34.63
42727;BME280;28372;56.832;60.658;2023-05-08T01:57:43;98139.13;;;8.06;35.13
42727;BME280;28372;56.832;60.658;2023-05-08T02:00:15;98146.44;;;8.22;34.50
42727;BME280;28372;56.832;60.658;2023-05-08T02:02:46;98145.56;;;8.18;34.89
42727;BME280;28372;56.832;60.658;2023-05-08T02:05:15;98147.16;;;8.35;35.05
42727;BME280;28372;56.832;60.658;2023-05-08T02:07:48;98147.63;;;8.53;34.69
42727;BME280;28372;56.832;60.658;2023-05-08T02:10:18;98142.19;;;8.69;34.16
42727;BME280;28372;56.832;60.658;2023-05-08T02:12:47;98156.09;;;8.71;33.62
42727;BME280;28372;56.832;60.658;2023-05-08T02:15:17;98154.63;;;8.89;33.61
42727;BME280;28372;56.832;60.658;2023-05-08T02:17:47;98156.91;;;9.07;33.45
42727;BME280;28372;56.832;60.658;2023-05-08T02:20:17;98163.47;;;9.25;33.04
42727;BME280;28372;56.832;60.658;2023-05-08T02:22:49;98167.69;;;9.42;32.86
42727;BME280;28372;56.832;60.658;2023-05-08T02:25:18;98160.66;;;9.57;32.67
42727;BME280;28372;56.832;60.658;2023-05-08T02:27:47;98161.00;;;9.75;32.29
42727;BME280;28372;56.832;60.658;2023-05-08T02:30:16;98161.59;;;9.85;31.71
42727;BME280;28372;56.832;60.658;2023-05-08T02:32:46;98172.56;;;9.95;31.51
42727;BME280;28372;56.832;60.658;2023-05-08T02:35:17;98167.41;;;9.87;31.43
42727;BME280;28372;56.832;60.658;2023-05-08T02:37:50;98177.72;;;9.81;31.00
42727;BME280;28372;56.832;60.658;2023-05-08T02:40:21;98150.50;;;9.70;31.31
42727;BME280;28372;56.832;60.658;2023-05-08T02:42:51;98165.06;;;9.85;31.20
42727;BME280;28372;56.832;60.658;2023-05-08T02:45:19;98176.91;;;10.43;31.59
42727;BME280;28372;56.832;60.658;2023-05-08T02:48:00;98170.06;;;10.99;29.96
42727;BME280;28372;56.832;60.658;2023-05-08T02:50:53;98167.88;;;11.39;29.41
42727;BME280;28372;56.832;60.658;2023-05-08T02:53:33;98189.00;;;12.24;28.52
42727;BME280;28372;56.832;60.658;2023-05-08T02:56:08;98193.91;;;13.01;27.18
42727;BME280;28372;56.832;60.658;2023-05-08T02:58:47;98186.81;;;13.41;27.31
42727;BME280;28372;56.832;60.658;2023-05-08T03:03:48;98190.25;;;14.84;25.01
42727;BME280;28372;56.832;60.658;2023-05-08T03:06:23;98190.88;;;15.67;24.77
42727;BME280;28372;56.832;60.658;2023-05-08T03:08:56;98212.03;;;16.30;23.70
42727;BME280;28372;56.832;60.658;2023-05-08T03:11:32;98194.78;;;16.93;23.43
42727;BME280;28372;56.832;60.658;2023-05-08T03:14:05;98193.44;;;17.12;22.54
42727;BME280;28372;56.832;60.658;2023-05-08T03:16:37;98212.34;;;16.95;22.38
42727;BME280;28372;56.832;60.658;2023-05-08T03:19:12;98220.75;;;16.63;22.48
42727;BME280;28372;56.832;60.658;2023-05-08T03:21:43;98208.59;;;16.15;22.09
42727;BME280;28372;56.832;60.658;2023-05-08T03:24:14;98221.53;;;16.00;22.57
42727;BME280;28372;56.832;60.658;2023-05-08T03:26:44;98217.72;;;15.72;23.09
42727;BME280;28372;56.832;60.658;2023-05-08T03:29:13;98206.47;;;15.59;22.95
42727;BME280;28372;56.832;60.658;2023-05-08T03:31:42;98206.81;;;15.80;22.79
42727;BME280;28372;56.832;60.658;2023-05-08T03:34:11;98202.09;;;15.87;22.90
42727;BME280;28372;56.832;60.658;2023-05-08T03:36:40;98215.28;;;16.03;22.92
42727;BME280;28372;56.832;60.658;2023-05-08T03:39:08;98223.06;;;16.05;22.98
42727;BME280;28372;56.832;60.658;2023-05-08T03:41:36;98214.09;;;16.04;22.66
42727;BME280;28372;56.832;60.658;2023-05-08T03:44:05;98223.84;;;16.09;22.73
42727;BME280;28372;56.832;60.658;2023-05-08T03:46:34;98231.63;;;16.10;22.85
42727;BME280;28372;56.832;60.658;2023-05-08T03:49:03;98228.94;;;16.63;22.63
42727;BME280;28372;56.832;60.658;2023-05-08T03:51:32;98223.25;;;16.99;22.41
42727;BME280;28372;56.832;60.658;2023-05-08T03:54:03;98224.50;;;17.67;21.78
42727;BME280;28372;56.832;60.658;2023-05-08T03:56:32;98246.03;;;18.00;21.35
42727;BME280;28372;56.832;60.658;2023-05-08T03:59:13;98232.59;;;18.12;20.70
42727;BME280;28372;56.832;60.658;2023-05-08T04:01:54;98238.19;;;18.32;20.83
42727;BME280;28372;56.832;60.658;2023-05-08T04:04:38;98240.53;;;18.85;20.65
42727;BME280;28372;56.832;60.658;2023-05-08T04:07:21;98243.13;;;18.96;20.38
42727;BME280;28372;56.832;60.658;2023-05-08T04:09:58;98245.88;;;20.03;19.15
42727;BME280;28372;56.832;60.658;2023-05-08T04:15:26;98251.84;;;22.09;17.67
42727;BME280;28372;56.832;60.658;2023-05-08T04:17:59;98244.28;;;22.78;17.44
42727;BME280;28372;56.832;60.658;2023-05-08T04:20:31;98245.84;;;23.61;16.83
42727;BME280;28372;56.832;60.658;2023-05-08T04:23:01;98254.03;;;24.09;16.37
42727;BME280;28372;56.832;60.658;2023-05-08T04:25:32;98253.84;;;24.67;15.94
42727;BME280;28372;56.832;60.658;2023-05-08T04:28:03;98243.22;;;25.43;14.75
42727;BME280;28372;56.832;60.658;2023-05-08T04:30:32;98243.03;;;25.93;14.28
42727;BME280;28372;56.832;60.658;2023-05-08T04:33:02;98245.97;;;25.89;14.25
42727;BME280;28372;56.832;60.658;2023-05-08T04:35:33;98247.44;;;26.27;13.90
42727;BME280;28372;56.832;60.658;2023-05-08T04:38:02;98248.28;;;26.86;13.99
42727;BME280;28372;56.832;60.658;2023-05-08T04:40:30;98246.25;;;27.34;13.97
42727;BME280;28372;56.832;60.658;2023-05-08T04:42:58;98244.06;;;27.78;13.36
42727;BME280;28372;56.832;60.658;2023-05-08T04:45:26;98256.53;;;28.27;12.62
42727;BME280;28372;56.832;60.658;2023-05-08T04:47:53;98260.81;;;28.73;12.61
42727;BME280;28372;56.832;60.658;2023-05-08T04:50:22;98258.88;;;29.20;12.11
42727;BME280;28372;56.832;60.658;2023-05-08T04:52:50;98250.06;;;29.43;11.79
42727;BME280;28372;56.832;60.658;2023-05-08T04:55:18;98249.59;;;29.70;11.68
42727;BME280;28372;56.832;60.658;2023-05-08T04:57:46;98256.13;;;29.88;11.50
42727;BME280;28372;56.832;60.658;2023-05-08T05:00:15;98258.94;;;30.20;11.39
42727;BME280;28372;56.832;60.658;2023-05-08T05:02:45;98261.72;;;30.46;11.25
42727;BME280;28372;56.832;60.658;2023-05-08T05:05:13;98258.06;;;30.72;10.78
42727;BME280;28372;56.832;60.658;2023-05-08T05:07:41;98257.16;;;30.92;11.13
42727;BME280;28372;56.832;60.658;2023-05-08T05:10:10;98251.94;;;31.11;10.88
42727;BME280;28372;56.832;60.658;2023-05-08T05:12:39;98273.34;;;31.25;10.59
42727;BME280;28372;56.832;60.658;2023-05-08T05:15:07;98262.84;;;31.69;10.73
42727;BME280;28372;56.832;60.658;2023-05-08T05:17:36;98262.88;;;31.86;10.61
42727;BME280;28372;56.832;60.658;2023-05-08T05:20:06;98264.94;;;32.08;10.19
42727;BME280;28372;56.832;60.658;2023-05-08T05:22:35;98255.28;;;32.26;10.01
42727;BME280;28372;56.832;60.658;2023-05-08T05:25:03;98269.28;;;32.49;10.25
42727;BME280;28372;56.832;60.658;2023-05-08T05:27:35;98271.28;;;32.49;9.81
42727;BME280;28372;56.832;60.658;2023-05-08T05:30:05;98267.19;;;32.67;9.95
42727;BME280;28372;56.832;60.658;2023-05-08T05:32:34;98257.25;;;32.88;9.49
42727;BME280;28372;56.832;60.658;2023-05-08T05:35:02;98262.25;;;33.12;9.60
42727;BME280;28372;56.832;60.658;2023-05-08T05:37:32;98256.38;;;33.16;9.43
42727;BME280;28372;56.832;60.658;2023-05-08T05:39:59;98262.69;;;33.39;9.49
42727;BME280;28372;56.832;60.658;2023-05-08T05:42:30;98252.63;;;33.61;9.21
42727;BME280;28372;56.832;60.658;2023-05-08T05:44:58;98255.59;;;33.27;9.34
42727;BME280;28372;56.832;60.658;2023-05-08T05:47:26;98271.81;;;33.45;9.16
42727;BME280;28372;56.832;60.658;2023-05-08T05:49:54;98255.50;;;33.44;9.53
42727;BME280;28372;56.832;60.658;2023-05-08T05:52:22;98258.56;;;33.46;9.26
42727;BME280;28372;56.832;60.658;2023-05-08T05:54:49;98254.16;;;33.62;9.21
42727;BME280;28372;56.832;60.658;2023-05-08T05:57:17;98253.31;;;33.78;8.92
42727;BME280;28372;56.832;60.658;2023-05-08T05:59:45;98257.78;;;33.93;9.34
42727;BME280;28372;56.832;60.658;2023-05-08T06:02:12;98251.56;;;34.06;9.11
42727;BME280;28372;56.832;60.658;2023-05-08T06:04:45;98266.97;;;33.52;9.45
42727;BME280;28372;56.832;60.658;2023-05-08T06:07:13;98247.22;;;34.10;9.16
42727;BME280;28372;56.832;60.658;2023-05-08T06:09:41;98258.63;;;34.18;9.00
42727;BME280;28372;56.832;60.658;2023-05-08T06:12:09;98262.13;;;34.30;9.17
42727;BME280;28372;56.832;60.658;2023-05-08T06:14:38;98253.22;;;34.26;8.98
42727;BME280;28372;56.832;60.658;2023-05-08T06:17:06;98252.94;;;34.29;8.92
42727;BME280;28372;56.832;60.658;2023-05-08T06:19:34;98253.72;;;34.30;8.70
42727;BME280;28372;56.832;60.658;2023-05-08T06:22:02;98265.97;;;33.91;8.84
42727;BME280;28372;56.832;60.658;2023-05-08T06:24:29;98253.72;;;33.94;9.18
42727;BME280;28372;56.832;60.658;2023-05-08T06:26:57;98245.47;;;34.02;8.98
42727;BME280;28372;56.832;60.658;2023-05-08T06:29:25;98257.06;;;34.28;8.52
42727;BME280;28372;56.832;60.658;2023-05-08T06:31:53;98257.66;;;34.46;8.92
42727;BME280;28372;56.832;60.658;2023-05-08T06:34:20;98248.75;;;34.66;8.76
42727;BME280;28372;56.832;60.658;2023-05-08T06:36:48;98254.25;;;34.78;8.56
42727;BME280;28372;56.832;60.658;2023-05-08T06:39:15;98252.94;;;34.85;8.61
42727;BME280;28372;56.832;60.658;2023-05-08T06:41:46;98259.59;;;34.81;8.34
42727;BME280;28372;56.832;60.658;2023-05-08T06:44:23;98255.63;;;34.41;8.52
42727;BME280;28372;56.832;60.658;2023-05-08T06:46:51;98251.50;;;34.47;8.86
42727;BME280;28372;56.832;60.658;2023-05-08T06:49:18;98251.91;;;34.57;8.51
42727;BME280;28372;56.832;60.658;2023-05-08T06:51:46;98237.53;;;34.66;8.57
42727;BME280;28372;56.832;60.658;2023-05-08T06:54:14;98252.56;;;34.69;8.82
42727;BME280;28372;56.832;60.658;2023-05-08T06:56:41;98253.00;;;34.73;8.44
42727;BME280;28372;56.832;60.658;2023-05-08T06:59:09;98248.16;;;34.98;8.57
42727;BME280;28372;56.832;60.658;2023-05-08T07:01:37;98245.75;;;35.08;8.48
42727;BME280;28372;56.832;60.658;2023-05-08T07:04:05;98251.41;;;35.27;8.74
42727;BME280;28372;56.832;60.658;2023-05-08T07:06:32;98243.84;;;35.41;8.15
42727;BME280;28372;56.832;60.658;2023-05-08T07:09:00;98250.59;;;35.51;8.38
42727;BME280;28372;56.832;60.658;2023-05-08T07:11:29;98245.91;;;35.41;8.33
42727;BME280;28372;56.832;60.658;2023-05-08T07:13:56;98249.81;;;35.32;8.33
42727;BME280;28372;56.832;60.658;2023-05-08T07:16:24;98254.38;;;34.91;8.05
42727;BME280;28372;56.832;60.658;2023-05-08T07:18:52;98249.91;;;34.52;8.47
42727;BME280;28372;56.832;60.658;2023-05-08T07:21:19;98241.56;;;34.16;8.66
42727;BME280;28372;56.832;60.658;2023-05-08T07:23:47;98238.19;;;33.87;8.72
42727;BME280;28372;56.832;60.658;2023-05-08T07:26:19;98248.16;;;33.41;9.10
42727;BME280;28372;56.832;60.658;2023-05-08T07:28:47;98231.28;;;32.82;9.17
42727;BME280;28372;56.832;60.658;2023-05-08T07:31:17;98245.09;;;32.35;9.41
42727;BME280;28372;56.832;60.658;2023-05-08T07:33:44;98247.31;;;31.68;9.99
42727;BME280;28372;56.832;60.658;2023-05-08T07:36:13;98252.16;;;31.02;9.93
42727;BME280;28372;56.832;60.658;2023-05-08T07:38:40;98245.59;;;30.35;10.37
42727;BME280;28372;56.832;60.658;2023-05-08T07:41:08;98238.22;;;29.74;10.69
42727;BME280;28372;56.832;60.658;2023-05-08T07:43:36;98239.38;;;29.20;11.10
42727;BME280;28372;56.832;60.658;2023-05-08T07:46:04;98246.75;;;28.82;11.06
42727;BME280;28372;56.832;60.658;2023-05-08T07:48:32;98234.47;;;28.24;11.26
42727;BME280;28372;56.832;60.658;2023-05-08T07:51:00;98233.81;;;27.84;11.50
42727;BME280;28372;56.832;60.658;2023-05-08T07:53:27;98241.06;;;27.51;11.67
42727;BME280;28372;56.832;60.658;2023-05-08T07:55:55;98233.16;;;27.11;12.09
42727;BME280;28372;56.832;60.658;2023-05-08T07:58:23;98231.91;;;26.88;11.99
42727;BME280;28372;56.832;60.658;2023-05-08T08:00:50;98228.38;;;26.54;12.43
42727;BME280;28372;56.832;60.658;2023-05-08T08:03:18;98231.59;;;26.19;12.52
42727;BME280;28372;56.832;60.658;2023-05-08T08:05:46;98230.09;;;26.08;12.56
42727;BME280;28372;56.832;60.658;2023-05-08T08:08:14;98230.72;;;25.85;12.74
42727;BME280;28372;56.832;60.658;2023-05-08T08:10:41;98235.53;;;25.75;12.61
42727;BME280;28372;56.832;60.658;2023-05-08T08:13:09;98226.94;;;25.45;12.77
42727;BME280;28372;56.832;60.658;2023-05-08T08:15:37;98227.22;;;25.28;12.86
42727;BME280;28372;56.832;60.658;2023-05-08T08:18:05;98222.09;;;24.99;13.21
42727;BME280;28372;56.832;60.658;2023-05-08T08:20:37;98227.06;;;25.23;13.20
42727;BME280;28372;56.832;60.658;2023-05-08T08:23:05;98210.84;;;24.75;13.62
42727;BME280;28372;56.832;60.658;2023-05-08T08:25:33;98223.28;;;24.39;13.75
42727;BME280;28372;56.832;60.658;2023-05-08T08:28:00;98219.06;;;24.16;13.99
42727;BME280;28372;56.832;60.658;2023-05-08T08:30:28;98222.78;;;23.90;13.93
42727;BME280;28372;56.832;60.658;2023-05-08T08:32:55;98223.41;;;23.72;14.11
42727;BME280;28372;56.832;60.658;2023-05-08T08:35:23;98215.59;;;23.58;14.31
42727;BME280;28372;56.832;60.658;2023-05-08T08:37:55;98229.59;;;23.41;14.51
42727;BME280;28372;56.832;60.658;2023-05-08T08:40:23;98210.81;;;23.14;14.71
42727;BME280;28372;56.832;60.658;2023-05-08T08:42:51;98211.97;;;22.91;14.56
42727;BME280;28372;56.832;60.658;2023-05-08T08:45:18;98212.78;;;22.66;14.87
42727;BME280;28372;56.832;60.658;2023-05-08T08:47:47;98220.19;;;22.43;15.13
42727;BME280;28372;56.832;60.658;2023-05-08T08:50:15;98228.09;;;22.28;15.42
42727;BME280;28372;56.832;60.658;2023-05-08T08:52:55;98220.94;;;22.31;15.18
42727;BME280;28372;56.832;60.658;2023-05-08T08:55:28;98218.34;;;22.11;15.40
42727;BME280;28372;56.832;60.658;2023-05-08T08:58:13;98233.91;;;22.30;15.18
42727;BME280;28372;56.832;60.658;2023-05-08T09:00:44;98226.28;;;21.53;15.69
42727;BME280;28372;56.832;60.658;2023-05-08T09:03:13;98221.06;;;21.26;16.06
42727;BME280;28372;56.832;60.658;2023-05-08T09:05:42;98228.13;;;21.11;16.43
42727;BME280;28372;56.832;60.658;2023-05-08T09:08:11;98222.13;;;21.16;16.29
42727;BME280;28372;56.832;60.658;2023-05-08T09:10:39;98219.06;;;20.81;16.15
42727;BME280;28372;56.832;60.658;2023-05-08T09:13:07;98210.19;;;20.57;16.16
42727;BME280;28372;56.832;60.658;2023-05-08T09:15:35;98225.53;;;20.37;16.53
42727;BME280;28372;56.832;60.658;2023-05-08T09:18:03;98219.25;;;20.20;16.88
42727;BME280;28372;56.832;60.658;2023-05-08T09:20:32;98201.59;;;20.01;16.96
42727;BME280;28372;56.832;60.658;2023-05-08T09:23:00;98214.72;;;19.94;17.61
42727;BME280;28372;56.832;60.658;2023-05-08T09:25:44;98222.00;;;20.20;17.39
42727;BME280;28372;56.832;60.658;2023-05-08T09:28:19;98231.19;;;19.94;17.25
42727;BME280;28372;56.832;60.658;2023-05-08T09:30:58;98218.28;;;19.50;17.76
42727;BME280;28372;56.832;60.658;2023-05-08T09:33:28;98222.16;;;19.09;18.01
42727;BME280;28372;56.832;60.658;2023-05-08T09:35:56;98221.28;;;18.92;18.07
42727;BME280;28372;56.832;60.658;2023-05-08T09:38:37;98227.53;;;19.16;17.97
42727;BME280;28372;56.832;60.658;2023-05-08T09:41:14;98211.22;;;18.82;18.64
42727;BME280;28372;56.832;60.658;2023-05-08T09:43:43;98226.81;;;18.61;18.34
42727;BME280;28372;56.832;60.658;2023-05-08T09:46:25;98218.00;;;19.01;17.78
42727;BME280;28372;56.832;60.658;2023-05-08T09:48:57;98214.53;;;18.46;18.46
42727;BME280;28372;56.832;60.658;2023-05-08T09:51:27;98219.38;;;18.35;19.05
42727;BME280;28372;56.832;60.658;2023-05-08T09:53:57;98207.47;;;18.18;19.05
42727;BME280;28372;56.832;60.658;2023-05-08T09:56:36;98212.13;;;18.48;18.75
42727;BME280;28372;56.832;60.658;2023-05-08T09:59:28;98207.22;;;18.36;19.14
42727;BME280;28372;56.832;60.658;2023-05-08T10:02:09;98203.28;;;18.09;19.27
42727;BME280;28372;56.832;60.658;2023-05-08T10:04:37;98201.84;;;17.67;18.63
42727;BME280;28372;56.832;60.658;2023-05-08T10:07:05;98191.13;;;17.49;19.24
42727;BME280;28372;56.832;60.658;2023-05-08T10:09:32;98201.31;;;17.44;18.93
42727;BME280;28372;56.832;60.658;2023-05-08T10:12:16;98196.84;;;17.23;19.57
42727;BME280;28372;56.832;60.658;2023-05-08T10:14:45;98191.78;;;17.25;19.00
42727;BME280;28372;56.832;60.658;2023-05-08T10:17:15;98203.13;;;17.20;19.03
42727;BME280;28372;56.832;60.658;2023-05-08T10:19:50;98208.34;;;17.07;19.44
42727;BME280;28372;56.832;60.658;2023-05-08T10:22:24;98193.28;;;16.88;19.79
42727;BME280;28372;56.832;60.658;2023-05-08T10:24:56;98190.16;;;16.86;19.98
42727;BME280;28372;56.832;60.658;2023-05-08T10:27:38;98195.72;;;16.72;20.08
42727;BME280;28372;56.832;60.658;2023-05-08T10:30:08;98205.13;;;16.67;19.94
42727;BME280;28372;56.832;60.658;2023-05-08T10:32:41;98201.69;;;16.59;19.74
42727;BME280;28372;56.832;60.658;2023-05-08T10:35:10;98193.94;;;16.51;19.64
42727;BME280;28372;56.832;60.658;2023-05-08T10:37:38;98195.19;;;16.39;19.92
42727;BME280;28372;56.832;60.658;2023-05-08T10:40:08;98198.78;;;16.29;20.21
42727;BME280;28372;56.832;60.658;2023-05-08T10:42:37;98194.84;;;16.30;20.03
42727;BME280;28372;56.832;60.658;2023-05-08T10:45:08;98189.44;;;16.22;19.90
42727;BME280;28372;56.832;60.658;2023-05-08T10:48:02;98191.13;;;16.58;20.40
42727;BME280;28372;56.832;60.658;2023-05-08T10:56:14;98186.09;;;15.97;20.98
42727;BME280;28372;56.832;60.658;2023-05-08T10:58:41;98184.97;;;15.87;20.76
42727;BME280;28372;56.832;60.658;2023-05-08T11:01:10;98195.84;;;15.90;21.39
42727;BME280;28372;56.832;60.658;2023-05-08T11:03:41;98195.44;;;15.96;21.36
42727;BME280;28372;56.832;60.658;2023-05-08T11:06:10;98197.81;;;15.86;20.57
42727;BME280;28372;56.832;60.658;2023-05-08T11:08:51;98199.69;;;16.00;20.87
42727;BME280;28372;56.832;60.658;2023-05-08T11:11:29;98207.16;;;15.92;20.72
42727;BME280;28372;56.832;60.658;2023-05-08T11:19:21;98203.72;;;15.63;21.48
42727;BME280;28372;56.832;60.658;2023-05-08T11:22:21;98205.19;;;15.97;21.46
42727;BME280;28372;56.832;60.658;2023-05-08T11:25:02;98195.91;;;15.80;21.69
42727;BME280;28372;56.832;60.658;2023-05-08T11:30:42;98199.41;;;15.84;21.54
42727;BME280;28372;56.832;60.658;2023-05-08T11:33:11;98193.22;;;15.58;21.43
42727;BME280;28372;56.832;60.658;2023-05-08T11:35:46;98185.44;;;15.60;21.29
42727;BME280;28372;56.832;60.658;2023-05-08T11:40:57;98197.50;;;15.55;21.99
42727;BME280;28372;56.832;60.658;2023-05-08T11:46:07;98210.84;;;15.28;21.68
42727;BME280;28372;56.832;60.658;2023-05-08T11:48:39;98196.06;;;15.22;21.73
42727;BME280;28372;56.832;60.658;2023-05-08T11:51:08;98200.75;;;15.18;21.94
42727;BME280;28372;56.832;60.658;2023-05-08T11:53:36;98205.03;;;15.12;21.42
42727;BME280;28372;56.832;60.658;2023-05-08T11:56:04;98193.72;;;15.13;21.98
42727;BME280;28372;56.832;60.658;2023-05-08T11:58:32;98205.41;;;15.10;21.70
42727;BME280;28372;56.832;60.658;2023-05-08T12:01:00;98198.03;;;15.03;21.50
42727;BME280;28372;56.832;60.658;2023-05-08T12:03:27;98202.72;;;15.06;22.12
42727;BME280;28372;56.832;60.658;2023-05-08T12:05:57;98202.31;;;15.08;21.46
42727;BME280;28372;56.832;60.658;2023-05-08T12:08:25;98194.94;;;15.01;21.73
42727;BME280;28372;56.832;60.658;2023-05-08T12:10:56;98208.94;;;15.07;21.55
42727;BME280;28372;56.832;60.658;2023-05-08T12:13:28;98209.72;;;14.97;21.77
42727;BME280;28372;56.832;60.658;2023-05-08T12:15:58;98210.47;;;14.94;21.98
42727;BME280;28372;56.832;60.658;2023-05-08T12:18:27;98217.13;;;14.93;21.76
42727;BME280;28372;56.832;60.658;2023-05-08T12:20:58;98203.47;;;14.85;21.90
42727;BME280;28372;56.832;60.658;2023-05-08T12:23:28;98218.25;;;14.88;22.06
42727;BME280;28372;56.832;60.658;2023-05-08T12:25:59;98219.84;;;14.89;21.64
42727;BME280;28372;56.832;60.658;2023-05-08T12:28:28;98210.88;;;14.67;21.92
42727;BME280;28372;56.832;60.658;2023-05-08T12:30:58;98204.25;;;14.64;22.42
42727;BME280;28372;56.832;60.658;2023-05-08T12:33:26;98215.16;;;14.64;22.32
42727;BME280;28372;56.832;60.658;2023-05-08T12:35:56;98219.84;;;14.67;22.10
42727;BME280;28372;56.832;60.658;2023-05-08T12:38:25;98210.09;;;14.70;21.97
42727;BME280;28372;56.832;60.658;2023-05-08T12:40:53;98212.78;;;14.55;22.33
42727;BME280;28372;56.832;60.658;2023-05-08T12:43:31;98219.06;;;14.70;22.21
42727;BME280;28372;56.832;60.658;2023-05-08T12:46:00;98229.91;;;14.56;22.30
42727;BME280;28372;56.832;60.658;2023-05-08T12:48:28;98220.94;;;14.48;22.77
42727;BME280;28372;56.832;60.658;2023-05-08T12:51:01;98221.34;;;14.61;22.51
42727;BME280;28372;56.832;60.658;2023-05-08T12:53:31;98227.97;;;14.56;22.85
42727;BME280;28372;56.832;60.658;2023-05-08T12:56:01;98230.28;;;14.54;22.32
42727;BME280;28372;56.832;60.658;2023-05-08T12:58:32;98239.22;;;14.51;22.80
42727;BME280;28372;56.832;60.658;2023-05-08T13:01:18;98240.81;;;14.74;22.48
42727;BME280;28372;56.832;60.658;2023-05-08T13:03:51;98247.38;;;14.51;22.68
42727;BME280;28372;56.832;60.658;2023-05-08T13:06:28;98227.16;;;14.31;23.17
42727;BME280;28372;56.832;60.658;2023-05-08T13:08:56;98244.63;;;14.33;22.61
42727;BME280;28372;56.832;60.658;2023-05-08T13:11:28;98247.00;;;14.42;22.23
42727;BME280;28372;56.832;60.658;2023-05-08T13:13:57;98243.06;;;14.29;22.44
42727;BME280;28372;56.832;60.658;2023-05-08T13:16:25;98235.28;;;14.23;22.52
42727;BME280;28372;56.832;60.658;2023-05-08T13:18:52;98246.88;;;14.10;22.46
42727;BME280;28372;56.832;60.658;2023-05-08T13:21:20;98232.13;;;14.07;22.40
42727;BME280;28372;56.832;60.658;2023-05-08T13:23:48;98242.22;;;14.07;22.16
42727;BME280;28372;56.832;60.658;2023-05-08T13:26:15;98238.34;;;14.08;22.16
42727;BME280;28372;56.832;60.658;2023-05-08T13:28:43;98239.88;;;14.05;22.41
42727;BME280;28372;56.832;60.658;2023-05-08T13:31:10;98251.53;;;14.02;21.96
42727;BME280;28372;56.832;60.658;2023-05-08T13:33:38;98251.91;;;13.93;21.97
42727;BME280;28372;56.832;60.658;2023-05-08T13:36:06;98253.81;;;13.93;22.70
42727;BME280;28372;56.832;60.658;2023-05-08T13:38:34;98256.94;;;13.91;22.12
42727;BME280;28372;56.832;60.658;2023-05-08T13:41:02;98257.66;;;13.81;21.61
42727;BME280;28372;56.832;60.658;2023-05-08T13:43:30;98261.91;;;13.78;22.45
42727;BME280;28372;56.832;60.658;2023-05-08T13:45:57;98255.72;;;13.78;23.06
42727;BME280;28372;56.832;60.658;2023-05-08T13:48:25;98266.56;;;13.70;23.39
42727;BME280;28372;56.832;60.658;2023-05-08T13:50:52;98258.34;;;13.63;23.32
42727;BME280;28372;56.832;60.658;2023-05-08T13:53:20;98269.59;;;13.58;22.82
42727;BME280;28372;56.832;60.658;2023-05-08T13:55:48;98267.25;;;13.57;22.82